sensor_id;sensor_type;location;lat;lon;timestamp;temperature;humidity
57390;DHT22;43217;52.694;6.214;2024-02-28T00:00:22;2.50;99.90
57390;DHT22;43217;52.694;6.214;2024-02-28T00:02:48;2.50;99.90
57390;DHT22;43217;52.694;6.214;2024-02-28T00:05:13;2.50;99.90
57390;DHT22;43217;52.694;6.214;2024-02-28T00:07:39;2.50;99.90
57390;DHT22;43217;52.694;6.214;2024-02-28T00:10:05;2.60;99.90
57390;DHT22;43217;52.694;6.214;2024-02-28T00:12:31;2.50;99.90
57390;DHT22;43217;52.694;6.214;2024-02-28T00:14:56;2.50;99.90
57390;DHT22;43217;52.694;6.214;2024-02-28T00:17:23;2.50;99.90
57390;DHT22;43217;52.694;6.214;2024-02-28T00:19:49;2.40;99.90
57390;DHT22;43217;52.694;6.214;2024-02-28T00:22:14;2.40;99.90
57390;DHT22;43217;52.694;6.214;2024-02-28T00:24:40;2.40;99.90
57390;DHT22;43217;52.694;6.214;2024-02-28T00:27:06;2.50;99.90
57390;DHT22;43217;52.694;6.214;2024-02-28T00:29:32;2.50;99.90
57390;DHT22;43217;52.694;6.214;2024-02-28T00:31:57;2.50;99.90
57390;DHT22;43217;52.694;6.214;2024-02-28T00:34:23;2.60;99.90
57390;DHT22;43217;52.694;6.214;2024-02-28T00:36:48;2.60;99.90
57390;DHT22;43217;52.694;6.214;2024-02-28T00:39:14;2.60;99.90
57390;DHT22;43217;52.694;6.214;2024-02-28T00:41:39;2.60;99.90
57390;DHT22;43217;52.694;6.214;2024-02-28T00:44:05;2.60;99.90
57390;DHT22;43217;52.694;6.214;2024-02-28T00:46:31;2.60;99.90
57390;DHT22;43217;52.694;6.214;2024-02-28T00:48:56;2.60;99.90
57390;DHT22;43217;52.694;6.214;2024-02-28T00:51:22;2.60;99.90
57390;DHT22;43217;52.694;6.214;2024-02-28T00:53:47;2.60;99.90
57390;DHT22;43217;52.694;6.214;2024-02-28T00:56:13;2.70;99.90
57390;DHT22;43217;52.694;6.214;2024-02-28T00:58:38;2.70;99.90
57390;DHT22;43217;52.694;6.214;2024-02-28T01:01:04;2.80;99.90
57390;DHT22;43217;52.694;6.214;2024-02-28T01:03:30;2.80;99.90
57390;DHT22;43217;52.694;6.214;2024-02-28T01:05:56;2.80;99.90
57390;DHT22;43217;52.694;6.214;2024-02-28T01:08:22;2.90;99.90
57390;DHT22;43217;52.694;6.214;2024-02-28T01:10:47;2.90;99.90
57390;DHT22;43217;52.694;6.214;2024-02-28T01:13:13;3.00;99.90
57390;DHT22;43217;52.694;6.214;2024-02-28T01:15:41;2.90;99.90
57390;DHT22;43217;52.694;6.214;2024-02-28T01:18:07;3.00;99.90
57390;DHT22;43217;52.694;6.214;2024-02-28T01:20:33;3.00;99.90
57390;DHT22;43217;52.694;6.214;2024-02-28T01:22:58;3.00;99.90
57390;DHT22;43217;52.694;6.214;2024-02-28T01:25:24;3.00;99.90
57390;DHT22;43217;52.694;6.214;2024-02-28T01:27:50;3.00;99.90
57390;DHT22;43217;52.694;6.214;2024-02-28T01:30:15;3.00;99.90
57390;DHT22;43217;52.694;6.214;2024-02-28T01:32:41;3.00;99.90
57390;DHT22;43217;52.694;6.214;2024-02-28T01:35:08;3.00;99.90
57390;DHT22;43217;52.694;6.214;2024-02-28T01:37:34;3.00;99.90
57390;DHT22;43217;52.694;6.214;2024-02-28T01:40:00;3.00;99.90
57390;DHT22;43217;52.694;6.214;2024-02-28T01:42:25;3.00;99.90
57390;DHT22;43217;52.694;6.214;2024-02-28T01:44:51;3.00;99.90
57390;DHT22;43217;52.694;6.214;2024-02-28T01:47:17;3.00;99.90
57390;DHT22;43217;52.694;6.214;2024-02-28T01:49:44;3.00;99.90
57390;DHT22;43217;52.694;6.214;2024-02-28T01:52:11;3.00;99.90
57390;DHT22;43217;52.694;6.214;2024-02-28T01:54:38;3.10;99.90
57390;DHT22;43217;52.694;6.214;2024-02-28T01:57:05;3.10;99.90
57390;DHT22;43217;52.694;6.214;2024-02-28T01:59:31;3.10;99.90
57390;DHT22;43217;52.694;6.214;2024-02-28T02:01:57;3.00;99.90
57390;DHT22;43217;52.694;6.214;2024-02-28T02:04:24;3.00;99.90
57390;DHT22;43217;52.694;6.214;2024-02-28T02:06:50;3.00;99.90
57390;DHT22;43217;52.694;6.214;2024-02-28T02:09:18;3.00;99.90
57390;DHT22;43217;52.694;6.214;2024-02-28T02:11:43;3.00;99.90
57390;DHT22;43217;52.694;6.214;2024-02-28T02:14:10;3.00;99.90
57390;DHT22;43217;52.694;6.214;2024-02-28T02:16:35;3.00;99.90
57390;DHT22;43217;52.694;6.214;2024-02-28T02:19:01;3.00;99.90
57390;DHT22;43217;52.694;6.214;2024-02-28T02:21:30;3.00;99.90
57390;DHT22;43217;52.694;6.214;2024-02-28T02:23:56;2.90;99.90
57390;DHT22;43217;52.694;6.214;2024-02-28T02:26:21;2.90;99.90
57390;DHT22;43217;52.694;6.214;2024-02-28T02:28:47;2.80;99.90
57390;DHT22;43217;52.694;6.214;2024-02-28T02:31:13;2.80;99.90
57390;DHT22;43217;52.694;6.214;2024-02-28T02:33:39;2.80;99.90
57390;DHT22;43217;52.694;6.214;2024-02-28T02:36:04;2.80;99.90
57390;DHT22;43217;52.694;6.214;2024-02-28T02:38:30;2.80;99.90
57390;DHT22;43217;52.694;6.214;2024-02-28T02:40:56;2.80;99.90
57390;DHT22;43217;52.694;6.214;2024-02-28T02:43:21;2.80;99.90
57390;DHT22;43217;52.694;6.214;2024-02-28T02:45:47;2.80;99.90
57390;DHT22;43217;52.694;6.214;2024-02-28T02:48:13;2.80;99.90
57390;DHT22;43217;52.694;6.214;2024-02-28T02:50:39;2.80;99.90
57390;DHT22;43217;52.694;6.214;2024-02-28T02:53:04;2.90;99.90
57390;DHT22;43217;52.694;6.214;2024-02-28T02:55:32;2.80;99.90
57390;DHT22;43217;52.694;6.214;2024-02-28T02:57:58;2.80;99.90
57390;DHT22;43217;52.694;6.214;2024-02-28T03:00:23;2.80;99.90
57390;DHT22;43217;52.694;6.214;2024-02-28T03:02:49;2.80;99.90
57390;DHT22;43217;52.694;6.214;2024-02-28T03:05:14;2.70;99.90
57390;DHT22;43217;52.694;6.214;2024-02-28T03:07:40;2.70;99.90
57390;DHT22;43217;52.694;6.214;2024-02-28T03:10:06;2.70;99.90
57390;DHT22;43217;52.694;6.214;2024-02-28T03:12:32;2.60;99.90
57390;DHT22;43217;52.694;6.214;2024-02-28T03:14:57;2.60;99.90
57390;DHT22;43217;52.694;6.214;2024-02-28T03:17:23;2.50;99.90
57390;DHT22;43217;52.694;6.214;2024-02-28T03:19:49;2.60;99.90
57390;DHT22;43217;52.694;6.214;2024-02-28T03:22:15;2.60;99.90
57390;DHT22;43217;52.694;6.214;2024-02-28T03:24:41;2.60;99.90
57390;DHT22;43217;52.694;6.214;2024-02-28T03:27:06;2.60;99.90
57390;DHT22;43217;52.694;6.214;2024-02-28T03:29:32;2.70;99.90
57390;DHT22;43217;52.694;6.214;2024-02-28T03:31:58;2.70;99.90
57390;DHT22;43217;52.694;6.214;2024-02-28T03:34:24;2.70;99.90
57390;DHT22;43217;52.694;6.214;2024-02-28T03:36:50;2.70;99.90
57390;DHT22;43217;52.694;6.214;2024-02-28T03:39:15;2.60;99.90
57390;DHT22;43217;52.694;6.214;2024-02-28T03:41:41;2.70;99.90
57390;DHT22;43217;52.694;6.214;2024-02-28T03:44:06;2.60;99.90
57390;DHT22;43217;52.694;6.214;2024-02-28T03:46:32;2.70;99.90
57390;DHT22;43217;52.694;6.214;2024-02-28T03:48:58;2.60;99.90
57390;DHT22;43217;52.694;6.214;2024-02-28T03:51:24;2.70;99.90
57390;DHT22;43217;52.694;6.214;2024-02-28T03:53:49;2.60;99.90
57390;DHT22;43217;52.694;6.214;2024-02-28T03:56:25;2.70;99.90
57390;DHT22;43217;52.694;6.214;2024-02-28T03:58:51;2.60;99.90
57390;DHT22;43217;52.694;6.214;2024-02-28T04:01:17;2.60;99.90
57390;DHT22;43217;52.694;6.214;2024-02-28T04:03:43;2.60;99.90
57390;DHT22;43217;52.694;6.214;2024-02-28T04:06:10;2.70;99.90
57390;DHT22;43217;52.694;6.214;2024-02-28T04:08:36;2.60;99.90
57390;DHT22;43217;52.694;6.214;2024-02-28T04:11:01;2.70;99.90
57390;DHT22;43217;52.694;6.214;2024-02-28T04:13:27;2.70;99.90
57390;DHT22;43217;52.694;6.214;2024-02-28T04:15:52;2.70;99.90
57390;DHT22;43217;52.694;6.214;2024-02-28T04:18:18;2.60;99.90
57390;DHT22;43217;52.694;6.214;2024-02-28T04:20:44;2.70;99.90
57390;DHT22;43217;52.694;6.214;2024-02-28T04:23:09;2.70;99.90
57390;DHT22;43217;52.694;6.214;2024-02-28T04:25:35;2.70;99.90
57390;DHT22;43217;52.694;6.214;2024-02-28T04:28:01;2.70;99.90
57390;DHT22;43217;52.694;6.214;2024-02-28T04:30:27;2.70;99.90
57390;DHT22;43217;52.694;6.214;2024-02-28T04:32:53;2.70;99.90
57390;DHT22;43217;52.694;6.214;2024-02-28T04:35:19;2.80;99.90
57390;DHT22;43217;52.694;6.214;2024-02-28T04:37:46;2.80;99.90
57390;DHT22;43217;52.694;6.214;2024-02-28T04:40:12;2.80;99.90
57390;DHT22;43217;52.694;6.214;2024-02-28T04:42:37;2.80;99.90
57390;DHT22;43217;52.694;6.214;2024-02-28T04:45:07;2.80;99.90
57390;DHT22;43217;52.694;6.214;2024-02-28T04:47:32;2.90;99.90
57390;DHT22;43217;52.694;6.214;2024-02-28T04:49:58;2.90;99.90
57390;DHT22;43217;52.694;6.214;2024-02-28T04:52:24;2.90;99.90
57390;DHT22;43217;52.694;6.214;2024-02-28T04:54:53;2.90;99.90
57390;DHT22;43217;52.694;6.214;2024-02-28T04:57:19;2.90;99.90
57390;DHT22;43217;52.694;6.214;2024-02-28T04:59:45;2.90;99.90
57390;DHT22;43217;52.694;6.214;2024-02-28T05:02:11;2.90;99.90
57390;DHT22;43217;52.694;6.214;2024-02-28T05:04:36;2.90;99.90
57390;DHT22;43217;52.694;6.214;2024-02-28T05:07:02;3.00;99.90
57390;DHT22;43217;52.694;6.214;2024-02-28T05:09:28;2.90;99.90
57390;DHT22;43217;52.694;6.214;2024-02-28T05:11:53;3.00;99.90
57390;DHT22;43217;52.694;6.214;2024-02-28T05:14:19;3.00;99.90
57390;DHT22;43217;52.694;6.214;2024-02-28T05:16:46;3.00;99.90
57390;DHT22;43217;52.694;6.214;2024-02-28T05:19:12;3.00;99.90
57390;DHT22;43217;52.694;6.214;2024-02-28T05:21:42;3.00;99.90
57390;DHT22;43217;52.694;6.214;2024-02-28T05:24:08;3.10;99.90
57390;DHT22;43217;52.694;6.214;2024-02-28T05:26:38;3.10;99.90
57390;DHT22;43217;52.694;6.214;2024-02-28T05:29:04;3.10;99.90
57390;DHT22;43217;52.694;6.214;2024-02-28T05:31:30;3.10;99.90
57390;DHT22;43217;52.694;6.214;2024-02-28T05:33:59;3.20;99.90
57390;DHT22;43217;52.694;6.214;2024-02-28T05:36:29;3.20;99.90
57390;DHT22;43217;52.694;6.214;2024-02-28T05:38:57;3.20;99.90
57390;DHT22;43217;52.694;6.214;2024-02-28T05:41:23;3.20;99.90
57390;DHT22;43217;52.694;6.214;2024-02-28T05:43:49;3.20;99.90
57390;DHT22;43217;52.694;6.214;2024-02-28T05:46:16;3.20;99.90
57390;DHT22;43217;52.694;6.214;2024-02-28T05:48:43;3.30;99.90
57390;DHT22;43217;52.694;6.214;2024-02-28T05:51:10;3.30;99.90
57390;DHT22;43217;52.694;6.214;2024-02-28T05:53:36;3.30;99.90
57390;DHT22;43217;52.694;6.214;2024-02-28T05:56:02;3.30;99.90
57390;DHT22;43217;52.694;6.214;2024-02-28T05:58:28;3.30;99.90
57390;DHT22;43217;52.694;6.214;2024-02-28T06:00:54;3.30;99.90
57390;DHT22;43217;52.694;6.214;2024-02-28T06:03:20;3.30;99.90
57390;DHT22;43217;52.694;6.214;2024-02-28T06:05:45;3.30;99.90
57390;DHT22;43217;52.694;6.214;2024-02-28T06:08:12;3.30;99.90
57390;DHT22;43217;52.694;6.214;2024-02-28T06:10:38;3.40;99.90
57390;DHT22;43217;52.694;6.214;2024-02-28T06:13:03;3.40;99.90
57390;DHT22;43217;52.694;6.214;2024-02-28T06:15:29;3.40;99.90
57390;DHT22;43217;52.694;6.214;2024-02-28T06:17:58;3.40;99.90
57390;DHT22;43217;52.694;6.214;2024-02-28T06:20:26;3.50;99.90
57390;DHT22;43217;52.694;6.214;2024-02-28T06:22:51;3.50;99.90
57390;DHT22;43217;52.694;6.214;2024-02-28T06:25:17;3.50;99.90
57390;DHT22;43217;52.694;6.214;2024-02-28T06:27:48;3.50;99.90
57390;DHT22;43217;52.694;6.214;2024-02-28T06:30:14;3.50;99.90
57390;DHT22;43217;52.694;6.214;2024-02-28T06:32:40;3.50;99.90
57390;DHT22;43217;52.694;6.214;2024-02-28T06:35:06;3.50;99.90
57390;DHT22;43217;52.694;6.214;2024-02-28T06:37:33;3.50;99.90
57390;DHT22;43217;52.694;6.214;2024-02-28T06:39:59;3.50;99.90
57390;DHT22;43217;52.694;6.214;2024-02-28T06:42:24;3.50;99.90
57390;DHT22;43217;52.694;6.214;2024-02-28T06:44:50;3.60;99.90
57390;DHT22;43217;52.694;6.214;2024-02-28T06:47:16;3.60;99.90
57390;DHT22;43217;52.694;6.214;2024-02-28T06:49:42;3.60;99.90
57390;DHT22;43217;52.694;6.214;2024-02-28T06:52:07;3.60;99.90
57390;DHT22;43217;52.694;6.214;2024-02-28T06:54:33;3.60;99.90
57390;DHT22;43217;52.694;6.214;2024-02-28T06:56:59;3.60;99.90
57390;DHT22;43217;52.694;6.214;2024-02-28T06:59:24;3.60;99.90
57390;DHT22;43217;52.694;6.214;2024-02-28T07:01:50;3.60;99.90
57390;DHT22;43217;52.694;6.214;2024-02-28T07:04:16;3.60;99.90
57390;DHT22;43217;52.694;6.214;2024-02-28T07:06:42;3.60;99.90
57390;DHT22;43217;52.694;6.214;2024-02-28T07:09:08;3.60;99.90
57390;DHT22;43217;52.694;6.214;2024-02-28T07:11:34;3.70;99.90
57390;DHT22;43217;52.694;6.214;2024-02-28T07:14:00;3.70;99.90
57390;DHT22;43217;52.694;6.214;2024-02-28T07:16:28;3.70;99.90
57390;DHT22;43217;52.694;6.214;2024-02-28T07:18:54;3.70;99.90
57390;DHT22;43217;52.694;6.214;2024-02-28T07:21:20;3.70;99.90
57390;DHT22;43217;52.694;6.214;2024-02-28T07:23:45;3.70;99.90
57390;DHT22;43217;52.694;6.214;2024-02-28T07:26:15;3.70;99.90
57390;DHT22;43217;52.694;6.214;2024-02-28T07:28:41;3.60;99.90
57390;DHT22;43217;52.694;6.214;2024-02-28T07:31:06;3.70;99.90
57390;DHT22;43217;52.694;6.214;2024-02-28T07:33:32;3.70;99.90
57390;DHT22;43217;52.694;6.214;2024-02-28T07:35:58;3.70;99.90
57390;DHT22;43217;52.694;6.214;2024-02-28T07:38:27;3.70;99.90
57390;DHT22;43217;52.694;6.214;2024-02-28T07:40:53;3.70;99.90
57390;DHT22;43217;52.694;6.214;2024-02-28T07:43:18;3.70;99.90
57390;DHT22;43217;52.694;6.214;2024-02-28T07:45:44;3.80;99.90
57390;DHT22;43217;52.694;6.214;2024-02-28T07:48:10;3.80;99.90
57390;DHT22;43217;52.694;6.214;2024-02-28T07:50:35;3.80;99.90
57390;DHT22;43217;52.694;6.214;2024-02-28T07:53:01;3.80;99.90
57390;DHT22;43217;52.694;6.214;2024-02-28T07:55:26;3.80;99.90
57390;DHT22;43217;52.694;6.214;2024-02-28T07:57:53;3.90;99.90
57390;DHT22;43217;52.694;6.214;2024-02-28T08:00:19;3.90;99.90
57390;DHT22;43217;52.694;6.214;2024-02-28T08:02:45;4.00;99.90
57390;DHT22;43217;52.694;6.214;2024-02-28T08:05:12;4.00;99.90
57390;DHT22;43217;52.694;6.214;2024-02-28T08:07:38;4.00;99.90
57390;DHT22;43217;52.694;6.214;2024-02-28T08:10:04;4.00;99.90
57390;DHT22;43217;52.694;6.214;2024-02-28T08:12:31;4.10;99.90
57390;DHT22;43217;52.694;6.214;2024-02-28T08:14:57;4.10;99.90
57390;DHT22;43217;52.694;6.214;2024-02-28T08:17:23;4.10;99.90
57390;DHT22;43217;52.694;6.214;2024-02-28T08:19:49;4.20;99.90
57390;DHT22;43217;52.694;6.214;2024-02-28T08:22:14;4.30;99.90
57390;DHT22;43217;52.694;6.214;2024-02-28T08:24:40;4.30;99.90
57390;DHT22;43217;52.694;6.214;2024-02-28T08:27:06;4.30;99.90
57390;DHT22;43217;52.694;6.214;2024-02-28T08:29:32;4.30;99.90
57390;DHT22;43217;52.694;6.214;2024-02-28T08:31:58;4.30;99.90
57390;DHT22;43217;52.694;6.214;2024-02-28T08:34:24;4.30;99.90
57390;DHT22;43217;52.694;6.214;2024-02-28T08:36:50;4.30;99.90
57390;DHT22;43217;52.694;6.214;2024-02-28T08:39:17;4.40;99.90
57390;DHT22;43217;52.694;6.214;2024-02-28T08:41:43;4.40;99.90
57390;DHT22;43217;52.694;6.214;2024-02-28T08:44:08;4.40;99.90
57390;DHT22;43217;52.694;6.214;2024-02-28T08:46:34;4.40;99.90
57390;DHT22;43217;52.694;6.214;2024-02-28T08:48:59;4.50;99.90
57390;DHT22;43217;52.694;6.214;2024-02-28T08:51:25;4.60;99.90
57390;DHT22;43217;52.694;6.214;2024-02-28T08:53:50;4.70;99.90
57390;DHT22;43217;52.694;6.214;2024-02-28T08:56:18;4.80;99.90
57390;DHT22;43217;52.694;6.214;2024-02-28T08:58:44;4.80;99.90
57390;DHT22;43217;52.694;6.214;2024-02-28T09:01:16;4.80;99.90
57390;DHT22;43217;52.694;6.214;2024-02-28T09:03:42;4.90;99.90
57390;DHT22;43217;52.694;6.214;2024-02-28T09:06:07;4.90;99.90
57390;DHT22;43217;52.694;6.214;2024-02-28T09:08:33;4.90;99.90
57390;DHT22;43217;52.694;6.214;2024-02-28T09:10:58;5.00;99.90
57390;DHT22;43217;52.694;6.214;2024-02-28T09:13:24;5.10;99.90
57390;DHT22;43217;52.694;6.214;2024-02-28T09:15:50;5.10;99.90
57390;DHT22;43217;52.694;6.214;2024-02-28T09:18:16;5.20;99.90
57390;DHT22;43217;52.694;6.214;2024-02-28T09:20:42;5.30;99.90
57390;DHT22;43217;52.694;6.214;2024-02-28T09:23:07;5.30;99.90
57390;DHT22;43217;52.694;6.214;2024-02-28T09:25:33;5.30;99.90
57390;DHT22;43217;52.694;6.214;2024-02-28T09:28:01;5.40;99.90
57390;DHT22;43217;52.694;6.214;2024-02-28T09:30:27;5.50;99.90
57390;DHT22;43217;52.694;6.214;2024-02-28T09:32:52;5.60;99.90
57390;DHT22;43217;52.694;6.214;2024-02-28T09:35:18;5.70;99.90
57390;DHT22;43217;52.694;6.214;2024-02-28T09:37:43;5.70;99.90
57390;DHT22;43217;52.694;6.214;2024-02-28T09:40:10;5.80;99.90
57390;DHT22;43217;52.694;6.214;2024-02-28T09:42:36;5.80;99.90
57390;DHT22;43217;52.694;6.214;2024-02-28T09:45:03;5.80;99.90
57390;DHT22;43217;52.694;6.214;2024-02-28T09:47:30;5.80;99.90
57390;DHT22;43217;52.694;6.214;2024-02-28T09:49:57;5.80;99.90
57390;DHT22;43217;52.694;6.214;2024-02-28T09:52:24;5.80;99.90
57390;DHT22;43217;52.694;6.214;2024-02-28T09:54:50;5.80;99.90
57390;DHT22;43217;52.694;6.214;2024-02-28T09:57:16;5.80;99.90
57390;DHT22;43217;52.694;6.214;2024-02-28T09:59:42;5.90;99.90
57390;DHT22;43217;52.694;6.214;2024-02-28T10:02:09;5.90;99.90
57390;DHT22;43217;52.694;6.214;2024-02-28T10:04:35;5.90;99.90
57390;DHT22;43217;52.694;6.214;2024-02-28T10:07:12;5.90;99.90
57390;DHT22;43217;52.694;6.214;2024-02-28T10:09:38;6.00;99.90
57390;DHT22;43217;52.694;6.214;2024-02-28T10:12:04;6.00;99.90
57390;DHT22;43217;52.694;6.214;2024-02-28T10:14:30;6.10;99.90
57390;DHT22;43217;52.694;6.214;2024-02-28T10:16:56;6.10;99.90
57390;DHT22;43217;52.694;6.214;2024-02-28T10:19:22;6.10;99.90
57390;DHT22;43217;52.694;6.214;2024-02-28T10:21:47;6.20;99.90
57390;DHT22;43217;52.694;6.214;2024-02-28T10:24:13;6.30;99.90
57390;DHT22;43217;52.694;6.214;2024-02-28T10:26:46;6.30;99.90
57390;DHT22;43217;52.694;6.214;2024-02-28T10:29:24;6.40;99.90
57390;DHT22;43217;52.694;6.214;2024-02-28T10:31:55;6.40;99.90
57390;DHT22;43217;52.694;6.214;2024-02-28T10:34:20;6.50;99.90
57390;DHT22;43217;52.694;6.214;2024-02-28T10:36:46;6.50;99.90
57390;DHT22;43217;52.694;6.214;2024-02-28T10:39:14;6.50;99.90
57390;DHT22;43217;52.694;6.214;2024-02-28T10:41:39;6.50;99.90
57390;DHT22;43217;52.694;6.214;2024-02-28T10:44:05;6.60;99.90
57390;DHT22;43217;52.694;6.214;2024-02-28T10:46:31;6.50;99.90
57390;DHT22;43217;52.694;6.214;2024-02-28T10:48:57;6.50;99.90
57390;DHT22;43217;52.694;6.214;2024-02-28T10:51:24;6.50;99.90
57390;DHT22;43217;52.694;6.214;2024-02-28T10:54:12;6.50;99.90
57390;DHT22;43217;52.694;6.214;2024-02-28T10:56:39;6.50;99.90
57390;DHT22;43217;52.694;6.214;2024-02-28T10:59:07;6.50;99.90
57390;DHT22;43217;52.694;6.214;2024-02-28T11:01:38;6.40;99.90
57390;DHT22;43217;52.694;6.214;2024-02-28T11:04:04;6.40;99.90
57390;DHT22;43217;52.694;6.214;2024-02-28T11:06:31;6.40;99.90
57390;DHT22;43217;52.694;6.214;2024-02-28T11:08:59;6.50;99.90
57390;DHT22;43217;52.694;6.214;2024-02-28T11:11:30;6.50;99.90
57390;DHT22;43217;52.694;6.214;2024-02-28T11:13:57;6.50;99.90
57390;DHT22;43217;52.694;6.214;2024-02-28T11:16:33;6.50;99.90
57390;DHT22;43217;52.694;6.214;2024-02-28T11:19:00;6.50;99.90
57390;DHT22;43217;52.694;6.214;2024-02-28T11:21:27;6.60;99.90
57390;DHT22;43217;52.694;6.214;2024-02-28T11:23:58;6.70;99.90
57390;DHT22;43217;52.694;6.214;2024-02-28T11:26:24;6.80;99.90
57390;DHT22;43217;52.694;6.214;2024-02-28T11:28:51;6.80;99.90
57390;DHT22;43217;52.694;6.214;2024-02-28T11:31:16;7.00;99.90
57390;DHT22;43217;52.694;6.214;2024-02-28T11:33:44;7.00;99.90
57390;DHT22;43217;52.694;6.214;2024-02-28T11:36:13;7.20;99.90
57390;DHT22;43217;52.694;6.214;2024-02-28T11:38:40;7.40;99.90
57390;DHT22;43217;52.694;6.214;2024-02-28T11:41:06;7.40;99.90
57390;DHT22;43217;52.694;6.214;2024-02-28T11:43:32;7.40;99.90
57390;DHT22;43217;52.694;6.214;2024-02-28T11:46:00;7.40;99.90
57390;DHT22;43217;52.694;6.214;2024-02-28T11:48:26;7.30;99.90
57390;DHT22;43217;52.694;6.214;2024-02-28T11:50:54;7.30;99.90
57390;DHT22;43217;52.694;6.214;2024-02-28T11:53:21;7.30;99.90
57390;DHT22;43217;52.694;6.214;2024-02-28T11:55:47;7.30;99.90
57390;DHT22;43217;52.694;6.214;2024-02-28T11:58:13;7.20;99.90
57390;DHT22;43217;52.694;6.214;2024-02-28T12:00:52;7.20;99.90
57390;DHT22;43217;52.694;6.214;2024-02-28T12:03:24;7.20;99.90
57390;DHT22;43217;52.694;6.214;2024-02-28T12:05:51;7.20;99.90
57390;DHT22;43217;52.694;6.214;2024-02-28T12:08:18;7.20;99.90
57390;DHT22;43217;52.694;6.214;2024-02-28T12:10:48;7.30;99.90
57390;DHT22;43217;52.694;6.214;2024-02-28T12:13:20;7.30;99.90
57390;DHT22;43217;52.694;6.214;2024-02-28T12:15:47;7.40;99.90
57390;DHT22;43217;52.694;6.214;2024-02-28T12:18:15;7.50;99.90
57390;DHT22;43217;52.694;6.214;2024-02-28T12:20:40;7.50;99.90
57390;DHT22;43217;52.694;6.214;2024-02-28T12:23:06;7.50;99.90
57390;DHT22;43217;52.694;6.214;2024-02-28T12:25:33;7.50;99.90
57390;DHT22;43217;52.694;6.214;2024-02-28T12:28:00;7.50;99.90
57390;DHT22;43217;52.694;6.214;2024-02-28T12:30:26;7.40;99.90
57390;DHT22;43217;52.694;6.214;2024-02-28T12:32:52;7.40;99.90
57390;DHT22;43217;52.694;6.214;2024-02-28T12:35:17;7.40;99.90
57390;DHT22;43217;52.694;6.214;2024-02-28T12:37:43;7.40;99.90
57390;DHT22;43217;52.694;6.214;2024-02-28T12:40:09;7.50;99.90
57390;DHT22;43217;52.694;6.214;2024-02-28T12:42:34;7.60;99.90
57390;DHT22;43217;52.694;6.214;2024-02-28T12:45:01;7.60;99.90
57390;DHT22;43217;52.694;6.214;2024-02-28T12:47:27;7.70;99.90
57390;DHT22;43217;52.694;6.214;2024-02-28T12:49:54;7.70;99.90
57390;DHT22;43217;52.694;6.214;2024-02-28T12:52:20;7.70;99.90
57390;DHT22;43217;52.694;6.214;2024-02-28T12:54:45;7.70;99.90
57390;DHT22;43217;52.694;6.214;2024-02-28T12:57:11;7.70;99.90
57390;DHT22;43217;52.694;6.214;2024-02-28T12:59:39;7.70;99.90
57390;DHT22;43217;52.694;6.214;2024-02-28T13:02:06;7.80;99.90
57390;DHT22;43217;52.694;6.214;2024-02-28T13:04:32;7.80;99.90
57390;DHT22;43217;52.694;6.214;2024-02-28T13:06:57;7.80;99.90
57390;DHT22;43217;52.694;6.214;2024-02-28T13:09:23;7.80;99.90
57390;DHT22;43217;52.694;6.214;2024-02-28T13:11:51;7.90;99.90
57390;DHT22;43217;52.694;6.214;2024-02-28T13:14:17;7.90;99.90
57390;DHT22;43217;52.694;6.214;2024-02-28T13:16:43;7.90;99.90
57390;DHT22;43217;52.694;6.214;2024-02-28T13:19:09;7.90;99.90
57390;DHT22;43217;52.694;6.214;2024-02-28T13:21:35;7.90;99.90
57390;DHT22;43217;52.694;6.214;2024-02-28T13:24:02;7.90;99.90
57390;DHT22;43217;52.694;6.214;2024-02-28T13:26:28;7.80;99.90
57390;DHT22;43217;52.694;6.214;2024-02-28T13:28:54;7.80;99.90
57390;DHT22;43217;52.694;6.214;2024-02-28T13:31:20;7.80;99.90
57390;DHT22;43217;52.694;6.214;2024-02-28T13:33:46;7.80;99.90
57390;DHT22;43217;52.694;6.214;2024-02-28T13:36:13;7.90;99.90
57390;DHT22;43217;52.694;6.214;2024-02-28T13:38:39;7.90;99.90
57390;DHT22;43217;52.694;6.214;2024-02-28T13:41:05;7.90;99.90
57390;DHT22;43217;52.694;6.214;2024-02-28T13:43:31;7.90;99.90
57390;DHT22;43217;52.694;6.214;2024-02-28T13:45:56;7.90;99.90
57390;DHT22;43217;52.694;6.214;2024-02-28T13:48:26;8.00;99.90
57390;DHT22;43217;52.694;6.214;2024-02-28T13:50:56;8.10;99.90
57390;DHT22;43217;52.694;6.214;2024-02-28T13:53:22;8.10;99.90
57390;DHT22;43217;52.694;6.214;2024-02-28T13:55:48;8.20;99.90
57390;DHT22;43217;52.694;6.214;2024-02-28T13:58:14;8.20;99.90
57390;DHT22;43217;52.694;6.214;2024-02-28T14:00:43;8.10;99.90
57390;DHT22;43217;52.694;6.214;2024-02-28T14:03:11;8.20;99.90
57390;DHT22;43217;52.694;6.214;2024-02-28T14:05:36;8.20;99.90
57390;DHT22;43217;52.694;6.214;2024-02-28T14:08:02;8.20;99.90
57390;DHT22;43217;52.694;6.214;2024-02-28T14:10:33;8.10;99.90
57390;DHT22;43217;52.694;6.214;2024-02-28T14:12:59;8.20;99.90
57390;DHT22;43217;52.694;6.214;2024-02-28T14:15:24;8.20;99.90
57390;DHT22;43217;52.694;6.214;2024-02-28T14:17:51;8.20;99.90
57390;DHT22;43217;52.694;6.214;2024-02-28T14:20:17;8.20;99.90
57390;DHT22;43217;52.694;6.214;2024-02-28T14:22:43;8.30;99.90
57390;DHT22;43217;52.694;6.214;2024-02-28T14:25:13;8.30;99.90
57390;DHT22;43217;52.694;6.214;2024-02-28T14:27:41;8.30;99.90
57390;DHT22;43217;52.694;6.214;2024-02-28T14:30:10;8.30;99.90
57390;DHT22;43217;52.694;6.214;2024-02-28T14:32:36;8.30;99.90
57390;DHT22;43217;52.694;6.214;2024-02-28T14:35:06;8.20;99.90
57390;DHT22;43217;52.694;6.214;2024-02-28T14:37:35;8.20;99.90
57390;DHT22;43217;52.694;6.214;2024-02-28T14:40:03;8.20;99.90
57390;DHT22;43217;52.694;6.214;2024-02-28T14:42:32;8.20;99.90
57390;DHT22;43217;52.694;6.214;2024-02-28T14:44:58;8.20;99.90
57390;DHT22;43217;52.694;6.214;2024-02-28T14:47:25;8.20;99.90
57390;DHT22;43217;52.694;6.214;2024-02-28T14:49:50;8.20;99.90
57390;DHT22;43217;52.694;6.214;2024-02-28T14:52:16;8.10;99.90
57390;DHT22;43217;52.694;6.214;2024-02-28T14:54:42;8.10;99.90
57390;DHT22;43217;52.694;6.214;2024-02-28T14:57:09;8.20;99.90
57390;DHT22;43217;52.694;6.214;2024-02-28T14:59:35;8.10;99.90
57390;DHT22;43217;52.694;6.214;2024-02-28T15:02:01;8.10;99.90
57390;DHT22;43217;52.694;6.214;2024-02-28T15:04:26;8.10;99.90
57390;DHT22;43217;52.694;6.214;2024-02-28T15:06:52;8.10;99.90
57390;DHT22;43217;52.694;6.214;2024-02-28T15:09:19;8.10;99.90
57390;DHT22;43217;52.694;6.214;2024-02-28T15:11:47;8.10;99.90
57390;DHT22;43217;52.694;6.214;2024-02-28T15:14:13;8.10;99.90
57390;DHT22;43217;52.694;6.214;2024-02-28T15:16:39;8.10;99.90
57390;DHT22;43217;52.694;6.214;2024-02-28T15:19:04;8.10;99.90
57390;DHT22;43217;52.694;6.214;2024-02-28T15:21:30;8.00;99.90
57390;DHT22;43217;52.694;6.214;2024-02-28T15:23:55;8.00;99.90
57390;DHT22;43217;52.694;6.214;2024-02-28T15:26:21;8.10;99.90
57390;DHT22;43217;52.694;6.214;2024-02-28T15:28:46;8.00;99.90
57390;DHT22;43217;52.694;6.214;2024-02-28T15:31:12;8.00;99.90
57390;DHT22;43217;52.694;6.214;2024-02-28T15:33:38;8.00;99.90
57390;DHT22;43217;52.694;6.214;2024-02-28T15:36:03;8.00;99.90
57390;DHT22;43217;52.694;6.214;2024-02-28T15:38:30;8.00;99.90